• Join FlightAware (Why Join?)
  • Login
  • US Flag 
08:49AM EDT


 

Airport Tracker/Info


-or-


 

Live Flight TrackerFlight Track Log ✈ SWA4 ✈ 19-Apr-2013 ✈ KDEN - KCAK

Flight Track Log - Related Links

Times and Time Zones

All times are in EDT time to prevent confusion due to time zone crossing. See the SWA4 flight status page for this flight to view local times or setup timezone preferences in your user account.

Time Position Orientation Groundspeed Altitude Reporting Facility
EDT Latitude Longitude Course Direction KTS MPH feet Rate Location/Type
01:22PM 39.9500 -104.6000 57° Northeast 255 293 8,900  Level Denver TRACON
01:23PM 39.9500 -104.5000 90° East 292 336 11,200 2,460 Climbing Denver TRACON
01:24PM 39.9333 -104.4000 102° East 316 364 13,900 3,000 Climbing Denver TRACON
01:25PM 39.9353 -104.3361 88° East 319 367 15,500 2,400 Climbing Denver Center
01:26PM 39.9250 -104.2058 96° East 361 415 17,700 2,040 Climbing Denver Center
01:27PM 39.8833 -103.7053 90° East  Level FlightAware Approximate
01:27PM 39.9114 -104.0497 96° East 410 472 19,800  Level Denver Center
01:28PM 39.9014 -103.8981 95° East 423 487 22,400 2,340 Climbing Denver Center
01:29PM 39.9253 -103.7389 79° East 424 488 24,700 2,040 Climbing Denver Center
01:30PM 39.9506 -103.5814 78° East 441 507 26,700 1,800 Climbing Denver Center
01:31PM 39.9747 -103.4164 79° East 458 527 28,500 1,680 Climbing Denver Center
01:32PM 39.9992 -103.2478 79° East 469 540 30,200 1,560 Climbing Denver Center
01:33PM 40.0239 -103.0769 79° East 475 547 31,800 1,740 Climbing Denver Center
01:34PM 40.0483 -102.9050 79° East 477 549 33,800 1,740 Climbing Denver Center
01:35PM 40.0761 -102.7075 80° East 471 542 35,500 1,200 Climbing Denver Center
01:36PM 40.1014 -102.5344 79° East 473 544 36,400 720 Climbing Denver Center
01:37PM 40.1228 -102.3739 80° East 470 541 37,000 240 Climbing Denver Center
01:38PM 40.1453 -102.2144 79° East 468 539 37,000  Level Denver Center
01:39PM 40.1706 -102.0269 80° East 470 541 37,000  Level Denver Center
01:40PM 40.1919 -101.8667 80° East 469 540 37,000  Level Denver Center
01:41PM 40.2175 -101.6758 80° East 476 548 37,000  Level Denver Center
01:42PM 40.2383 -101.5125 80° East 477 549 37,000  Level Denver Center
01:43PM 40.2633 -101.3231 80° East 475 547 37,000  Level Denver Center
01:44PM 40.2836 -101.1622 81° East 471 542 37,000  Level Denver Center
01:45PM 40.3033 -101.0025 81° East 468 539 37,000  Level Denver Center
01:46PM 40.3281 -100.8167 80° East 466 536 37,000  Level Denver Center
01:47PM 40.3517 -100.6306 80° East 467 537 37,000  Level Denver Center
01:48PM 40.3703 -100.4692 81° East 469 540 37,000  Level Denver Center
01:49PM 40.3936 -100.2792 81° East 475 547 37,000  Level Denver Center
01:50PM 40.4122 -100.1153 81° East 478 550 37,000  Level Denver Center
01:51PM 40.4347 -99.9231 81° East 478 550 37,000  Level Denver Center
01:53PM 40.4536 -99.7617 81° East 487 560 37,000  Level Denver Center
01:54PM 40.4714 -99.5833 82° East 493 567 37,000  Level Denver Center
01:56PM 40.5139 -99.1603 82° East 487 560 37,000  Level Denver Center
01:56PM 40.5208 -99.0919 82° East 484 557 37,000  Level Minneapolis Center
01:57PM 40.5386 -98.9183 82° East 482 555 37,000  Level Minneapolis Center
01:58PM 40.5564 -98.7450 82° East 482 555 37,000  Level Minneapolis Center
01:59PM 40.5719 -98.5708 83° East 483 556 37,000  Level Minneapolis Center
02:00PM 40.5911 -98.3614 83° East 483 556 37,000  Level Minneapolis Center
02:01PM 40.6078 -98.1872 83° East 483 556 37,000  Level Minneapolis Center
02:02PM 40.6233 -98.0122 83° East 483 556 37,000  Level Minneapolis Center
02:03PM 40.6394 -97.8353 83° East 486 559 37,000  Level Minneapolis Center
02:04PM 40.6547 -97.6569 83° East 490 564 37,000  Level Minneapolis Center
02:05PM 40.6711 -97.4789 83° East 490 564 37,000  Level Minneapolis Center
02:07PM 40.6850 -97.2969 84° East 492 566 37,000  Level Minneapolis Center
02:08PM 40.6997 -97.1192 84° East 491 565 37,000  Level Minneapolis Center
02:09PM 40.7172 -96.9047 84° East 491 565 37,000  Level Minneapolis Center
02:10PM 40.7314 -96.7272 84° East 490 564 37,000  Level Minneapolis Center
02:11PM 40.7453 -96.5503 84° East 489 563 37,000  Level Minneapolis Center
02:12PM 40.7589 -96.3731 84° East 489 563 37,000  Level Minneapolis Center
02:13PM 40.7722 -96.1964 84° East 488 562 37,000  Level Minneapolis Center
02:14PM 40.7850 -96.0206 84° East 487 560 37,000  Level Minneapolis Center
02:15PM 40.8019 -95.7767 85° East 483 556 37,000  Level Minneapolis Center
02:16PM 40.8136 -95.6011 85° East 484 557 37,000  Level Minneapolis Center
02:17PM 40.8269 -95.4236 84° East 487 560 37,000  Level Minneapolis Center
02:18PM 40.8383 -95.2492 85° East 482 555 37,000  Level Minneapolis Center
02:19PM 40.8500 -95.0722 85° East 483 556 37,000  Level Minneapolis Center
02:20PM 40.8608 -94.8961 85° East 483 556 37,000  Level Minneapolis Center
02:21PM 40.8733 -94.6800 86° East 490 564 37,000  Level Minneapolis Center
02:22PM 40.8814 -94.5228 86° East 492 566 37,000  Level Minneapolis Center
02:23PM 40.8914 -94.3411 86° East 496 571 37,000  Level Minneapolis Center
02:24PM 40.9047 -94.1231 85° East 497 572 37,000  Level Minneapolis Center
02:25PM 40.9136 -93.9422 86° East 497 572 37,000  Level Minneapolis Center
02:26PM 40.9239 -93.7583 86° East 500 575 37,000 660 Level Minneapolis Center
02:27PM 40.9333 -93.5736 86° East 504 580 38,400 960 Climbing Minneapolis Center
02:28PM 40.9428 -93.3947 86° East 495 570 39,000 240 Climbing Minneapolis Center
02:29PM 40.9503 -93.2164 87° East 489 563 39,000  Level Minneapolis Center
02:30PM 40.9636 -92.9964 85° East 497 572 39,000  Level Minneapolis Center
02:31PM 40.9722 -92.8167 86° East 493 567 39,000  Level Minneapolis Center
02:33PM 40.9789 -92.6364 87° East 488 562 39,000  Level Chicago Center
02:34PM 40.9867 -92.4542 87° East 494 568 39,000  Level Chicago Center
02:35PM 40.9939 -92.2733 87° East 494 568 39,000  Level Chicago Center
02:36PM 41.0036 -92.0542 87° East 498 573 39,000  Level Chicago Center
02:37PM 41.0100 -91.8717 87° East 498 573 39,000  Level Chicago Center
02:38PM 41.0164 -91.6894 87° East 498 573 39,000  Level Chicago Center
02:39PM 41.0219 -91.5150 88° East 495 570 39,000  Level Chicago Center
02:40PM 41.0278 -91.3331 88° East 495 570 39,000  Level Chicago Center
02:41PM 41.0344 -91.1169 88° East 492 566 39,000  Level Chicago Center
02:42PM 41.0400 -90.9344 88° East 493 567 39,000  Level Chicago Center
02:43PM 41.0444 -90.7508 88° East 497 572 39,000  Level Chicago Center
02:44PM 41.0497 -90.5692 88° East 496 571 39,000  Level Chicago Center
02:45PM 41.0547 -90.3836 88° East 499 574 39,000  Level Chicago Center
02:46PM 41.0581 -90.2042 89° East 491 565 39,000  Level Chicago Center
02:47PM 41.0617 -90.0186 88° East 499 574 39,000  Level Chicago Center
02:48PM 41.0656 -89.8311 88° East 504 580 39,000  Level Chicago Center
02:49PM 41.0692 -89.6075 89° East 502 578 39,000  Level Chicago Center
02:50PM 41.0722 -89.4197 89° East 505 581 39,000  Level Chicago Center
02:51PM 41.0756 -89.2342 89° East 501 577 39,000  Level Chicago Center
02:52PM 41.0761 -89.0489 90° East 499 574 39,000  Level Chicago Center
02:53PM 41.0783 -88.8656 89° East 500 575 39,000  Level Chicago Center
02:54PM 41.0800 -88.6828 89° East 501 577 39,000  Level Chicago Center
02:55PM 41.0819 -88.4631 89° East 502 578 39,000  Level Chicago Center
02:56PM 41.0836 -88.2811 89° East 501 577 39,000  Level Chicago Center
02:57PM 41.0858 -88.0989 89° East 503 579 39,000  Level Chicago Center
02:58PM 41.0856 -87.9167 90° East 504 580 39,000  Level Chicago Center
02:59PM 41.0861 -87.6956 90° East 507 583 39,000  Level Chicago Center
03:00PM 41.0856 -87.5100 92° East 509 586 39,000  Level Chicago Center
03:01PM 41.0812 -87.5070 92° East  Level FlightAware Approximate
03:01PM 41.0869 -87.3267 89° East 504 580 39,000  Level Chicago Center
03:03PM 41.0867 -87.1425 90° East 502 578 39,000  Level Chicago Center
03:04PM 41.0839 -86.9239 91° East 500 575 39,000 -360 Level Chicago Center
03:05PM 41.0806 -86.7394 91° East 501 577 38,300 -840 Descending Chicago Center
03:06PM 41.0722 -86.5542 93° East 500 575 37,300 -960 Descending Chicago Center
03:07PM 41.0672 -86.3725 92° East 497 572 36,300 -960 Descending Chicago Center
03:08PM 41.0586 -86.1889 93° East 500 575 35,400 -900 Descending Chicago Center
03:09PM 41.0517 -86.0064 93° East 500 575 34,500 -1,080 Descending Chicago Center
03:10PM 41.0422 -85.7922 93° East 491 565 33,200 -1,260 Descending Chicago Center
03:11PM 41.0350 -85.6158 93° East 488 562 31,900 -1,500 Descending Chicago Center
03:12PM 41.0281 -85.4453 93° East 478 550 30,200 -1,440 Descending Chicago Center
03:13PM 41.0208 -85.2783 93° East 469 540 29,000 -600 Descending Chicago Center
03:14PM 41.0131 -85.1136 94° East 461 531 29,000 -60 Level Chicago Center
03:15PM 41.0031 -84.9131 94° East 458 527 28,900 -600 Descending Chicago Center
03:16PM 40.9956 -84.7461 93° East 458 527 27,800 -1,020 Descending Chicago Center
03:17PM 40.9878 -84.5817 94° East 455 524 26,900 -900 Descending Chicago Center
03:17PM 40.9833 -84.5142 95° East 451 519 26,500 -1,020 Descending Cleveland Center
03:18PM 40.9764 -84.3514 93° East 446 513 25,500 -1,020 Descending Cleveland Center
03:19PM 40.9708 -84.2556 94° East 447 514 24,900 -1,140 Descending Chicago Center
03:20PM 40.9600 -84.0606 94° East 446 513 23,700 -1,020 Descending Chicago Center
03:20PM 40.9575 -84.0228 95° East 446 513 23,500 -540 Descending Cleveland Center
03:21PM 40.9478 -83.8603 94° East 446 513 23,000 -300 Descending Cleveland Center
03:22PM 40.9397 -83.7003 94° East 439 505 23,000  Level Cleveland Center
03:23PM 40.9292 -83.5431 95° East 434 499 23,000  Level Cleveland Center
03:24PM 40.9186 -83.3861 95° East 434 499 23,000  Level Cleveland Center
03:25PM 40.9103 -83.2125 94° East 434 499 23,000 -240 Level Cleveland Center
03:26PM 40.8992 -83.0528 95° East 434 499 22,600 -780 Descending Cleveland Center
03:27PM 40.8881 -82.8931 95° East 434 499 21,500 -1,020 Descending Cleveland Center
03:28PM 40.8783 -82.7417 95° East 427 491 20,600 -780 Descending Cleveland Center
03:29PM 40.8667 -82.5931 96° East 427 491 20,000 -480 Descending Cleveland Center
03:30PM 40.8525 -82.4442 97° East 411 473 19,700 -660 Descending Cleveland Center
03:31PM 40.8358 -82.2983 99° East 406 467 18,700 -1,260 Descending Cleveland Center
03:32PM 40.8214 -82.1608 98° East 392 451 17,200 -2,220 Descending Cleveland Center
03:33PM 40.8064 -82.0206 98° East 387 445 14,300 -3,120 Descending Cleveland Center
03:34PM 40.7894 -81.8747 99° East 393 452 11,000 -2,340 Descending Cleveland Center
03:35PM 40.7886 -81.7458 90° East 368 423 9,700 -1,320 Descending Cleveland Center
03:36PM 40.8150 -81.6228 74° East 346 398 8,400 -1,500 Descending Cleveland Center
03:37PM 40.8328 -81.5025 79° East 335 386 6,700 -1,440 Descending Cleveland Center
03:38PM 40.8544 -81.3903 76° East 319 367 5,600 -1,260 Descending Cleveland Center
03:39PM 40.9092 -81.3111 48° Northeast 289 333 4,200 -1,020 Descending Cleveland Center
03:40PM 40.9575 -81.2511 43° Northeast 275 316 3,600 -600 Descending Cleveland Center
03:41PM 41.0075 -81.2214 24° Northeast 242 278 3,000 -300 Descending Cleveland Center
03:42PM 41.0242 -81.2656 297° West 106 122 3,000  Level Cleveland Center
03:44PM 40.9334 -81.3883 226° Southwest  Level FlightAware Approximate